createdAt,value
2022-10-11T00:02:35.666Z,45.15
2022-10-11T00:05:39.408Z,44.80
2022-10-11T00:08:42.382Z,45.15
2022-10-11T00:11:45.405Z,44.73
2022-10-11T00:14:48.434Z,44.97
2022-10-11T00:17:52.815Z,44.89
2022-10-11T00:21:03.303Z,44.66
2022-10-11T00:24:07.273Z,45.31
2022-10-11T00:27:11.471Z,44.63
2022-10-11T00:30:15.007Z,44.47
2022-10-11T00:33:19.415Z,44.97
2022-10-11T00:36:23.118Z,44.98
2022-10-11T00:39:26.115Z,44.85
2022-10-11T00:42:29.551Z,45.10
2022-10-11T00:46:01.909Z,45.15
2022-10-11T00:49:13.915Z,45.18
2022-10-11T00:52:21.911Z,44.90
2022-10-11T00:55:31.375Z,44.97
2022-10-11T00:58:36.677Z,44.84
2022-10-11T01:01:39.790Z,45.33
2022-10-11T01:04:44.727Z,45.29
2022-10-11T01:07:48.969Z,45.17
2022-10-11T01:10:52.678Z,45.11
2022-10-11T01:14:15.993Z,45.39
2022-10-11T01:17:26.989Z,45.05
2022-10-11T01:20:41.733Z,44.98
2022-10-11T01:24:17.002Z,45.16
2022-10-11T01:27:42.327Z,45.02
2022-10-11T01:30:47.690Z,44.89
2022-10-11T01:33:56.104Z,45.38
2022-10-11T01:37:05.365Z,45.31
2022-10-11T01:40:12.585Z,45.54
2022-10-11T01:43:17.809Z,45.07
2022-10-11T01:46:23.052Z,45.17
2022-10-11T01:49:26.180Z,45.28
2022-10-11T01:52:31.400Z,45.12
2022-10-11T01:55:43.862Z,44.82
2022-10-11T01:59:03.540Z,44.99
2022-10-11T02:02:19.935Z,45.49
2022-10-11T02:05:31.405Z,44.81
2022-10-11T02:08:40.163Z,45.24
2022-10-11T02:11:43.407Z,45.28
2022-10-11T02:14:50.720Z,45.13
2022-10-11T02:17:58.339Z,45.50
2022-10-11T02:24:11.747Z,45.31
2022-10-11T02:27:17.716Z,45.18
2022-10-11T02:30:21.288Z,45.28
2022-10-11T02:33:29.354Z,44.99
2022-10-11T02:36:38.792Z,45.17
2022-10-11T02:39:46.122Z,45.38
2022-10-11T02:42:53.752Z,45.22
2022-10-11T02:46:00.962Z,45.19
2022-10-11T02:49:05.653Z,45.31
2022-10-11T02:52:08.795Z,45.06
2022-10-11T02:55:13.015Z,44.90
2022-10-11T02:58:16.042Z,45.10
2022-10-11T03:01:19.122Z,45.05
2022-10-11T03:04:23.721Z,45.06
2022-10-11T03:07:26.771Z,45.19
2022-10-11T03:10:29.796Z,45.08
2022-10-11T03:13:32.781Z,44.94
2022-10-11T03:16:35.791Z,45.04
2022-10-11T03:19:40.154Z,44.75
2022-10-11T03:22:43.193Z,44.61
2022-10-11T03:25:46.973Z,45.58
2022-10-11T03:28:50.064Z,45.50
2022-10-11T03:31:53.089Z,45.83
2022-10-11T03:34:57.765Z,45.75
2022-10-11T03:38:00.788Z,46.08
2022-10-11T03:41:03.941Z,46.76
2022-10-11T03:44:07.011Z,45.67
2022-10-11T03:47:10.672Z,45.88
2022-10-11T03:50:15.043Z,45.79
2022-10-11T03:53:18.322Z,46.01
2022-10-11T03:56:21.301Z,46.10
2022-10-11T03:59:24.457Z,46.08
2022-10-11T04:02:27.428Z,46.19
2022-10-11T04:05:31.970Z,45.78
2022-10-11T04:08:35.062Z,46.84
2022-10-11T04:11:38.302Z,47.73
2022-10-11T04:14:41.531Z,46.82
2022-10-11T04:17:44.505Z,47.14
2022-10-11T04:20:48.931Z,47.15
2022-10-11T04:23:51.987Z,46.54
2022-10-11T04:26:55.220Z,46.23
2022-10-11T04:29:58.249Z,46.13
2022-10-11T04:33:01.252Z,46.11
2022-10-11T04:36:06.740Z,45.86
2022-10-11T04:39:10.632Z,46.02
2022-10-11T04:42:13.784Z,46.18
2022-10-11T04:45:16.866Z,46.23
2022-10-11T04:48:19.977Z,45.98
2022-10-11T04:51:25.070Z,45.96
2022-10-11T04:54:28.673Z,46.05
2022-10-11T04:57:31.868Z,46.10
2022-10-11T05:00:34.872Z,46.15
2022-10-11T05:03:38.696Z,45.96
2022-10-11T05:06:43.123Z,46.19
2022-10-11T05:09:46.143Z,45.81
2022-10-11T05:12:49.357Z,46.31
2022-10-11T05:15:52.429Z,46.22
2022-10-11T05:18:55.528Z,46.32
2022-10-11T05:21:59.911Z,45.84
2022-10-11T05:25:02.966Z,46.36
2022-10-11T05:28:06.491Z,46.20
2022-10-11T05:31:09.607Z,45.71
2022-10-11T05:34:12.670Z,45.87
2022-10-11T05:37:17.042Z,45.81
2022-10-11T05:40:20.041Z,46.16
2022-10-11T05:43:23.053Z,45.87
2022-10-11T05:46:26.094Z,45.80
2022-10-11T05:49:29.295Z,46.26
2022-10-11T05:52:34.053Z,45.86
2022-10-11T05:55:38.466Z,45.90
2022-10-11T05:58:41.466Z,46.30
2022-10-11T06:01:44.565Z,46.06
2022-10-11T06:04:47.952Z,46.26
2022-10-11T06:07:52.604Z,46.17
2022-10-11T06:10:55.552Z,45.94
2022-10-11T06:13:59.565Z,46.20
2022-10-11T06:17:02.606Z,46.33
2022-10-11T06:20:06.437Z,46.07
2022-10-11T06:23:10.881Z,46.37
2022-10-11T06:26:13.840Z,46.63
2022-10-11T06:29:16.913Z,46.68
2022-10-11T06:32:20.202Z,46.46
2022-10-11T06:35:23.255Z,46.40
2022-10-11T06:38:27.735Z,46.54
2022-10-11T06:41:31.771Z,46.46
2022-10-11T06:44:34.710Z,46.27
2022-10-11T06:50:59.131Z,46.38
2022-10-11T06:54:05.341Z,46.58
2022-10-11T07:00:12.872Z,46.54
2022-10-11T07:03:16.023Z,46.66
2022-10-11T07:09:24.007Z,46.31
2022-10-11T07:12:27.017Z,46.28
2022-10-11T07:15:30.092Z,45.89
2022-10-11T07:21:36.875Z,46.36
2022-10-11T07:24:41.277Z,46.08
2022-10-11T07:27:44.240Z,46.13
2022-10-11T07:30:47.285Z,46.29
2022-10-11T07:33:50.502Z,46.29
2022-10-11T07:36:53.488Z,46.39
2022-10-11T07:39:57.882Z,46.48
2022-10-11T07:43:01.011Z,46.27
2022-10-11T07:46:05.388Z,46.41
2022-10-11T07:49:08.651Z,46.08
2022-10-11T07:52:11.671Z,46.20
2022-10-11T07:55:16.170Z,46.18
2022-10-11T07:58:19.115Z,46.24
2022-10-11T08:01:22.878Z,46.10
2022-10-11T08:04:25.913Z,45.88
2022-10-11T08:07:30.005Z,46.27
2022-10-11T08:10:40.349Z,45.97
2022-10-11T08:13:43.403Z,46.16
2022-10-11T08:16:46.413Z,45.82
2022-10-11T08:19:49.568Z,46.22
2022-10-11T08:22:52.619Z,46.24
2022-10-11T08:25:58.623Z,46.25
2022-10-11T08:29:03.487Z,46.06
2022-10-11T08:32:06.844Z,45.89
2022-10-11T08:35:10.206Z,45.84
2022-10-11T08:38:13.777Z,45.84
2022-10-11T08:41:37.375Z,45.74
2022-10-11T08:45:09.400Z,45.73
2022-10-11T08:48:15.085Z,46.24
2022-10-11T08:51:22.463Z,46.29
2022-10-11T08:54:38.349Z,46.30
2022-10-11T08:57:49.871Z,45.77
2022-10-11T09:00:55.709Z,46.26
2022-10-11T09:04:00.170Z,46.11
2022-10-11T09:07:08.463Z,46.19
2022-10-11T09:10:34.033Z,45.88
2022-10-11T09:13:56.361Z,46.18
2022-10-11T09:17:08.380Z,46.02
2022-10-11T09:20:25.365Z,46.28
2022-10-11T09:23:47.936Z,45.99
2022-10-11T09:26:57.225Z,46.00
2022-10-11T09:30:05.337Z,46.05
2022-10-11T09:33:16.544Z,45.93
2022-10-11T09:36:27.110Z,45.77
2022-10-11T09:39:32.749Z,45.73
2022-10-11T09:42:35.750Z,46.00
2022-10-11T09:45:49.264Z,45.87
2022-10-11T09:48:54.625Z,45.52
2022-10-11T09:52:00.652Z,45.49
2022-10-11T09:55:04.749Z,45.55
2022-10-11T09:58:31.152Z,45.71
2022-10-11T10:01:36.234Z,45.45
2022-10-11T10:04:56.626Z,45.47
2022-10-11T10:08:05.120Z,45.54
2022-10-11T10:11:10.642Z,45.67
2022-10-11T10:14:24.044Z,45.87
2022-10-11T10:17:28.524Z,45.79
2022-10-11T10:20:34.640Z,45.50
2022-10-11T10:23:38.771Z,46.08
2022-10-11T10:26:41.790Z,46.01
2022-10-11T10:29:45.529Z,45.39
2022-10-11T10:32:57.014Z,45.85
2022-10-11T10:36:06.775Z,45.58
2022-10-11T10:39:23.254Z,45.49
2022-10-11T10:42:26.438Z,45.76
2022-10-11T10:45:40.037Z,45.63
2022-10-11T10:52:47.699Z,45.26
2022-10-11T10:55:56.845Z,45.66
2022-10-11T10:59:15.411Z,45.71
2022-10-11T11:02:39.676Z,45.20
2022-10-11T11:05:52.755Z,45.65
2022-10-11T11:09:12.186Z,45.37
2022-10-11T11:12:39.625Z,45.40
2022-10-11T11:15:49.189Z,45.64
2022-10-11T11:18:59.446Z,45.18
2022-10-11T11:22:11.142Z,45.59
2022-10-11T11:25:25.873Z,45.21
2022-10-11T11:28:46.923Z,45.25
2022-10-11T11:32:09.654Z,45.05
2022-10-11T11:35:21.349Z,45.66
2022-10-11T11:38:35.288Z,45.97
2022-10-11T11:41:41.918Z,45.78
2022-10-11T11:44:48.423Z,45.84
2022-10-11T11:47:55.939Z,45.79
2022-10-11T11:51:07.352Z,45.77
2022-10-11T11:54:25.310Z,46.38
2022-10-11T11:57:40.330Z,46.33
2022-10-11T12:00:52.802Z,46.09
2022-10-11T12:03:58.905Z,46.26
2022-10-11T12:07:22.393Z,46.40
2022-10-11T12:10:31.154Z,46.18
2022-10-11T12:13:37.066Z,45.91
2022-10-11T12:17:07.258Z,45.75
2022-10-11T12:20:17.880Z,45.92
2022-10-11T12:23:48.276Z,46.16
2022-10-11T12:26:56.049Z,46.11
2022-10-11T12:29:59.082Z,46.20
2022-10-11T12:33:07.976Z,45.81
2022-10-11T12:36:35.595Z,46.25
2022-10-11T12:39:51.852Z,46.07
2022-10-11T12:43:23.892Z,46.10
2022-10-11T12:47:25.452Z,45.79
2022-10-11T12:50:34.818Z,45.55
2022-10-11T12:54:25.379Z,45.91
2022-10-11T12:58:00.896Z,45.96
2022-10-11T13:01:22.096Z,45.91
2022-10-11T13:04:29.324Z,45.73
2022-10-11T13:07:33.023Z,45.81
2022-10-11T13:10:43.633Z,45.51
2022-10-11T13:13:51.931Z,45.89
2022-10-11T13:17:05.815Z,45.77
2022-10-11T13:20:17.208Z,45.94
2022-10-11T13:23:23.878Z,45.61
2022-10-11T13:26:28.279Z,45.63
2022-10-11T13:29:34.666Z,45.59
2022-10-11T13:32:39.452Z,45.63
2022-10-11T13:35:42.837Z,45.22
2022-10-11T13:38:53.742Z,45.23
2022-10-11T13:41:58.206Z,45.27
2022-10-11T13:45:01.886Z,45.55
2022-10-11T13:48:15.138Z,45.50
2022-10-11T13:51:29.748Z,45.78
2022-10-11T13:54:59.114Z,45.45
2022-10-11T13:58:04.288Z,45.52
2022-10-11T14:01:17.852Z,45.45
2022-10-11T14:04:26.140Z,45.57
2022-10-11T14:07:37.436Z,45.23
2022-10-11T14:10:40.620Z,45.38
2022-10-11T14:13:45.532Z,45.31
2022-10-11T14:16:56.920Z,45.27
2022-10-11T14:20:15.515Z,45.33
2022-10-11T14:23:18.539Z,45.41
2022-10-11T14:26:23.044Z,45.23
2022-10-11T14:29:28.589Z,45.48
2022-10-11T14:32:34.206Z,45.54
2022-10-11T14:35:38.832Z,45.46
2022-10-11T14:38:41.986Z,45.52
2022-10-11T14:41:45.363Z,45.29
2022-10-11T14:44:48.503Z,45.26
2022-10-11T14:47:52.045Z,45.71
2022-10-11T14:51:01.239Z,45.47
2022-10-11T14:54:04.251Z,45.18
2022-10-11T14:57:07.276Z,45.46
2022-10-11T15:00:17.493Z,45.51
2022-10-11T15:03:20.519Z,45.46
2022-10-11T15:06:28.422Z,45.83
2022-10-11T15:09:31.818Z,46.11
2022-10-11T15:12:34.858Z,46.25
2022-10-11T15:15:41.157Z,46.36
2022-10-11T15:18:50.762Z,45.95
2022-10-11T15:21:55.204Z,46.46
2022-10-11T15:25:00.296Z,46.04
2022-10-11T15:28:03.365Z,45.88
2022-10-11T15:31:06.504Z,46.35
2022-10-11T15:34:11.359Z,46.63
2022-10-11T15:37:15.845Z,46.79
2022-10-11T15:40:23.502Z,47.58
2022-10-11T15:43:27.927Z,47.38
2022-10-11T15:46:31.031Z,46.90
2022-10-11T15:49:34.024Z,46.93
2022-10-11T15:52:38.478Z,47.33
2022-10-11T15:55:43.925Z,48.62
2022-10-11T15:58:48.072Z,47.80
2022-10-11T16:01:51.297Z,48.18
2022-10-11T16:04:54.626Z,47.29
2022-10-11T16:07:59.315Z,47.27
2022-10-11T16:11:02.583Z,48.10
2022-10-11T16:14:06.165Z,48.58
2022-10-11T16:17:09.155Z,48.62
2022-10-11T16:20:12.265Z,47.62
2022-10-11T16:23:16.997Z,48.00
2022-10-11T16:26:20.035Z,48.91
2022-10-11T16:29:24.262Z,48.55
2022-10-11T16:32:28.190Z,48.55
2022-10-11T16:35:32.801Z,48.96
2022-10-11T16:38:37.287Z,49.07
2022-10-11T16:41:40.354Z,48.69
2022-10-11T16:44:43.337Z,48.91
2022-10-11T16:47:46.510Z,48.57
2022-10-11T16:50:49.541Z,48.60
2022-10-11T16:53:54.471Z,48.62
2022-10-11T16:56:58.082Z,48.98
2022-10-11T17:00:01.357Z,48.27
2022-10-11T17:03:04.366Z,49.01
2022-10-11T17:06:08.793Z,48.72
2022-10-11T17:09:14.236Z,49.16
2022-10-11T17:12:19.784Z,49.23
2022-10-11T17:15:23.216Z,49.30
2022-10-11T17:18:26.259Z,49.74
2022-10-11T17:21:29.257Z,48.95
2022-10-11T17:24:35.894Z,48.97
2022-10-11T17:27:38.978Z,48.54
2022-10-11T17:30:42.289Z,48.16
2022-10-11T17:33:45.502Z,45.16
2022-10-11T17:36:49.227Z,44.26
2022-10-11T17:39:53.929Z,42.78
2022-10-11T17:42:57.089Z,42.71
2022-10-11T17:46:02.110Z,42.23
2022-10-11T17:49:08.139Z,41.89
2022-10-11T17:52:11.327Z,41.85
2022-10-11T17:55:16.798Z,41.79
2022-10-11T17:58:19.970Z,41.85
2022-10-11T18:01:24.632Z,41.35
2022-10-11T18:04:29.950Z,41.37
2022-10-11T18:07:33.062Z,41.76
2022-10-11T18:10:38.382Z,42.40
2022-10-11T18:13:45.989Z,41.86
2022-10-11T18:16:49.067Z,42.87
2022-10-11T18:19:52.382Z,42.67
2022-10-11T18:23:00.535Z,42.56
2022-10-11T18:26:11.841Z,42.91
2022-10-11T18:29:17.179Z,43.11
2022-10-11T18:32:21.079Z,42.90
2022-10-11T18:35:24.139Z,42.80
2022-10-11T18:38:27.326Z,42.90
2022-10-11T18:41:32.977Z,42.49
2022-10-11T18:44:36.017Z,42.71
2022-10-11T18:47:39.203Z,42.99
2022-10-11T18:50:42.280Z,42.86
2022-10-11T18:53:46.399Z,43.17
2022-10-11T18:56:50.981Z,43.01
2022-10-11T18:59:54.447Z,42.75
2022-10-11T19:02:57.450Z,42.90
2022-10-11T19:06:03.962Z,42.60
2022-10-11T19:09:09.148Z,42.71
2022-10-11T19:12:14.308Z,42.67
2022-10-11T19:15:17.727Z,42.86
2022-10-11T19:18:20.972Z,42.85
2022-10-11T19:21:24.404Z,42.59
2022-10-11T19:24:29.846Z,42.84
2022-10-11T19:27:34.290Z,43.28
2022-10-11T19:30:37.408Z,42.60
2022-10-11T19:33:40.741Z,42.17
2022-10-11T19:36:44.277Z,41.91
2022-10-11T19:39:47.405Z,41.47
2022-10-11T19:42:51.886Z,41.70
2022-10-11T19:46:01.393Z,41.71
2022-10-11T19:49:04.566Z,41.45
2022-10-11T19:52:09.623Z,41.71
2022-10-11T19:55:12.711Z,41.56
2022-10-11T19:58:17.549Z,41.73
2022-10-11T20:01:22.638Z,41.76
2022-10-11T20:07:49.328Z,41.92
2022-10-11T20:10:54.426Z,41.88
2022-10-11T20:13:59.047Z,42.09
2022-10-11T20:17:02.284Z,43.97
2022-10-11T20:20:05.813Z,44.94
2022-10-11T20:23:08.854Z,44.61
2022-10-11T20:26:13.970Z,44.15
2022-10-11T20:29:18.460Z,44.60
2022-10-11T20:32:21.463Z,44.57
2022-10-11T20:35:24.487Z,44.90
2022-10-11T20:38:27.771Z,44.85
2022-10-11T20:41:32.920Z,45.32
2022-10-11T20:44:37.634Z,45.76
2022-10-11T20:47:40.707Z,45.85
2022-10-11T20:50:45.672Z,45.35
2022-10-11T20:53:48.711Z,45.53
2022-10-11T20:56:51.740Z,45.52
2022-10-11T20:59:56.145Z,45.85
2022-10-11T21:02:59.115Z,46.08
2022-10-11T21:06:02.186Z,46.01
2022-10-11T21:09:05.600Z,46.40
2022-10-11T21:12:08.850Z,45.98
2022-10-11T21:15:13.422Z,45.96
2022-10-11T21:18:16.842Z,46.16
2022-10-11T21:21:20.283Z,46.17
2022-10-11T21:24:23.704Z,46.31
2022-10-11T21:27:26.934Z,45.86
2022-10-11T21:30:32.170Z,46.24
2022-10-11T21:33:36.054Z,46.69
2022-10-11T21:36:39.136Z,46.28
2022-10-11T21:39:42.162Z,46.46
2022-10-11T21:42:45.244Z,46.49
2022-10-11T21:45:49.868Z,46.18
2022-10-11T21:48:52.963Z,46.34
2022-10-11T21:51:56.519Z,46.21
2022-10-11T21:54:59.488Z,46.51
2022-10-11T21:58:02.586Z,46.49
2022-10-11T22:01:07.537Z,46.85
2022-10-11T22:04:12.024Z,46.63
2022-10-11T22:07:15.025Z,46.29
2022-10-11T22:10:18.192Z,46.15
2022-10-11T22:13:21.282Z,46.71
2022-10-11T22:16:25.710Z,46.75
2022-10-11T22:19:28.705Z,46.15
2022-10-11T22:22:31.766Z,46.79
2022-10-11T22:25:36.124Z,46.58
2022-10-11T22:28:39.329Z,46.28
2022-10-11T22:31:43.749Z,46.91
2022-10-11T22:34:46.706Z,46.89
2022-10-11T22:37:50.406Z,46.38
2022-10-11T22:40:53.787Z,46.39
2022-10-11T22:43:56.794Z,46.57
2022-10-11T22:47:01.303Z,46.70
2022-10-11T22:50:04.811Z,46.26
2022-10-11T22:53:08.346Z,46.24
2022-10-11T22:56:11.685Z,46.37
2022-10-11T22:59:14.739Z,46.62
2022-10-11T23:02:19.174Z,46.74
2022-10-11T23:05:22.208Z,46.97
2022-10-11T23:08:25.690Z,46.72
2022-10-11T23:11:28.935Z,46.61
2022-10-11T23:14:31.924Z,46.69
2022-10-11T23:17:36.572Z,46.89
2022-10-11T23:20:40.506Z,46.69
2022-10-11T23:23:43.527Z,46.69
2022-10-11T23:26:46.518Z,47.02
2022-10-11T23:29:49.543Z,46.67
2022-10-11T23:32:54.004Z,47.08
2022-10-11T23:35:57.020Z,46.84
2022-10-11T23:39:00.678Z,46.73
2022-10-11T23:42:03.846Z,46.64
2022-10-11T23:45:07.842Z,46.84
2022-10-11T23:48:12.956Z,46.89
2022-10-11T23:51:16.600Z,46.51
2022-10-11T23:54:19.625Z,47.05
2022-10-11T23:57:22.676Z,46.77
